sensor_id;sensor_type;location;lat;lon;timestamp;temperature;humidity
11059;DHT22;5582;59.272;15.220;2022-08-16T00:00:59;20.10;1.40
11059;DHT22;5582;59.272;15.220;2022-08-16T00:03:25;20.00;1.40
11059;DHT22;5582;59.272;15.220;2022-08-16T00:05:51;20.00;1.40
11059;DHT22;5582;59.272;15.220;2022-08-16T00:08:18;20.00;1.40
11059;DHT22;5582;59.272;15.220;2022-08-16T00:10:44;20.00;1.40
11059;DHT22;5582;59.272;15.220;2022-08-16T00:13:10;20.00;1.40
11059;DHT22;5582;59.272;15.220;2022-08-16T00:15:45;19.90;1.40
11059;DHT22;5582;59.272;15.220;2022-08-16T00:18:14;19.90;1.40
11059;DHT22;5582;59.272;15.220;2022-08-16T00:20:41;19.90;1.40
11059;DHT22;5582;59.272;15.220;2022-08-16T00:23:07;19.90;1.40
11059;DHT22;5582;59.272;15.220;2022-08-16T00:25:33;19.90;1.40
11059;DHT22;5582;59.272;15.220;2022-08-16T00:27:59;19.90;1.40
11059;DHT22;5582;59.272;15.220;2022-08-16T00:30:25;19.90;1.40
11059;DHT22;5582;59.272;15.220;2022-08-16T00:32:56;19.90;1.40
11059;DHT22;5582;59.272;15.220;2022-08-16T00:35:26;19.80;1.40
11059;DHT22;5582;59.272;15.220;2022-08-16T00:37:52;19.80;1.40
11059;DHT22;5582;59.272;15.220;2022-08-16T00:40:24;19.80;1.40
11059;DHT22;5582;59.272;15.220;2022-08-16T00:42:50;19.70;1.40
11059;DHT22;5582;59.272;15.220;2022-08-16T00:45:24;19.70;1.40
11059;DHT22;5582;59.272;15.220;2022-08-16T00:47:52;19.70;1.40
11059;DHT22;5582;59.272;15.220;2022-08-16T00:50:27;19.70;1.40
11059;DHT22;5582;59.272;15.220;2022-08-16T00:52:53;19.70;1.40
11059;DHT22;5582;59.272;15.220;2022-08-16T00:55:21;19.70;1.40
11059;DHT22;5582;59.272;15.220;2022-08-16T00:57:50;19.70;1.40
11059;DHT22;5582;59.272;15.220;2022-08-16T01:00:17;19.70;1.40
11059;DHT22;5582;59.272;15.220;2022-08-16T01:02:43;19.60;1.40
11059;DHT22;5582;59.272;15.220;2022-08-16T01:05:09;19.70;1.40
11059;DHT22;5582;59.272;15.220;2022-08-16T01:07:36;19.70;1.40
11059;DHT22;5582;59.272;15.220;2022-08-16T01:10:03;19.60;1.40
11059;DHT22;5582;59.272;15.220;2022-08-16T01:12:29;19.60;1.40
11059;DHT22;5582;59.272;15.220;2022-08-16T01:14:57;19.60;1.40
11059;DHT22;5582;59.272;15.220;2022-08-16T01:17:25;19.60;1.40
11059;DHT22;5582;59.272;15.220;2022-08-16T01:19:55;19.60;1.40
11059;DHT22;5582;59.272;15.220;2022-08-16T01:22:56;19.60;1.40
11059;DHT22;5582;59.272;15.220;2022-08-16T01:25:28;19.60;1.40
11059;DHT22;5582;59.272;15.220;2022-08-16T01:27:57;19.60;1.40
11059;DHT22;5582;59.272;15.220;2022-08-16T01:30:27;19.60;1.40
11059;DHT22;5582;59.272;15.220;2022-08-16T01:32:56;19.50;1.40
11059;DHT22;5582;59.272;15.220;2022-08-16T01:35:27;19.50;1.40
11059;DHT22;5582;59.272;15.220;2022-08-16T01:37:56;19.50;1.40
11059;DHT22;5582;59.272;15.220;2022-08-16T01:40:37;19.50;1.40
11059;DHT22;5582;59.272;15.220;2022-08-16T01:43:03;19.50;1.40
11059;DHT22;5582;59.272;15.220;2022-08-16T01:45:29;19.40;1.40
11059;DHT22;5582;59.272;15.220;2022-08-16T01:47:55;19.40;1.40
11059;DHT22;5582;59.272;15.220;2022-08-16T01:50:20;19.40;1.40
11059;DHT22;5582;59.272;15.220;2022-08-16T01:52:47;19.30;1.40
11059;DHT22;5582;59.272;15.220;2022-08-16T01:55:16;19.30;1.40
11059;DHT22;5582;59.272;15.220;2022-08-16T01:57:41;19.30;1.40
11059;DHT22;5582;59.272;15.220;2022-08-16T02:00:09;19.30;1.40
11059;DHT22;5582;59.272;15.220;2022-08-16T02:02:36;19.20;1.40
11059;DHT22;5582;59.272;15.220;2022-08-16T02:05:02;19.20;1.40
11059;DHT22;5582;59.272;15.220;2022-08-16T02:07:28;19.20;1.40
11059;DHT22;5582;59.272;15.220;2022-08-16T02:09:53;19.20;1.40
11059;DHT22;5582;59.272;15.220;2022-08-16T02:12:19;19.10;1.40
11059;DHT22;5582;59.272;15.220;2022-08-16T02:14:45;19.10;1.40
11059;DHT22;5582;59.272;15.220;2022-08-16T02:17:11;19.10;1.40
11059;DHT22;5582;59.272;15.220;2022-08-16T02:19:39;19.10;1.40
11059;DHT22;5582;59.272;15.220;2022-08-16T02:22:06;19.10;1.40
11059;DHT22;5582;59.272;15.220;2022-08-16T02:24:34;19.00;1.40
11059;DHT22;5582;59.272;15.220;2022-08-16T02:27:00;19.00;1.40
11059;DHT22;5582;59.272;15.220;2022-08-16T02:29:25;19.00;1.40
11059;DHT22;5582;59.272;15.220;2022-08-16T02:31:52;19.00;1.40
11059;DHT22;5582;59.272;15.220;2022-08-16T02:34:19;19.00;1.40
11059;DHT22;5582;59.272;15.220;2022-08-16T02:36:45;18.90;1.40
11059;DHT22;5582;59.272;15.220;2022-08-16T02:39:13;18.90;1.40
11059;DHT22;5582;59.272;15.220;2022-08-16T02:41:40;18.90;1.40
11059;DHT22;5582;59.272;15.220;2022-08-16T02:44:07;18.90;1.40
11059;DHT22;5582;59.272;15.220;2022-08-16T02:46:33;18.90;1.40
11059;DHT22;5582;59.272;15.220;2022-08-16T02:49:00;18.80;1.40
11059;DHT22;5582;59.272;15.220;2022-08-16T02:51:26;18.80;1.40
11059;DHT22;5582;59.272;15.220;2022-08-16T02:53:52;18.80;1.40
11059;DHT22;5582;59.272;15.220;2022-08-16T02:56:18;18.70;1.40
11059;DHT22;5582;59.272;15.220;2022-08-16T02:58:46;18.70;1.40
11059;DHT22;5582;59.272;15.220;2022-08-16T03:01:13;18.70;1.40
11059;DHT22;5582;59.272;15.220;2022-08-16T03:03:40;18.70;1.40
11059;DHT22;5582;59.272;15.220;2022-08-16T03:06:06;18.70;1.40
11059;DHT22;5582;59.272;15.220;2022-08-16T03:08:31;18.70;1.40
11059;DHT22;5582;59.272;15.220;2022-08-16T03:10:57;18.60;1.40
11059;DHT22;5582;59.272;15.220;2022-08-16T03:13:23;18.60;1.40
11059;DHT22;5582;59.272;15.220;2022-08-16T03:15:48;18.60;1.40
11059;DHT22;5582;59.272;15.220;2022-08-16T03:18:14;18.60;1.40
11059;DHT22;5582;59.272;15.220;2022-08-16T03:20:40;18.60;1.40
11059;DHT22;5582;59.272;15.220;2022-08-16T03:23:07;18.60;1.40
11059;DHT22;5582;59.272;15.220;2022-08-16T03:25:33;18.60;1.40
11059;DHT22;5582;59.272;15.220;2022-08-16T03:27:59;18.70;1.40
11059;DHT22;5582;59.272;15.220;2022-08-16T03:30:28;18.70;1.40
11059;DHT22;5582;59.272;15.220;2022-08-16T03:32:54;18.80;1.40
11059;DHT22;5582;59.272;15.220;2022-08-16T03:35:26;18.80;1.40
11059;DHT22;5582;59.272;15.220;2022-08-16T03:38:02;18.90;1.40
11059;DHT22;5582;59.272;15.220;2022-08-16T03:40:28;18.90;1.40
11059;DHT22;5582;59.272;15.220;2022-08-16T03:42:54;19.00;1.40
11059;DHT22;5582;59.272;15.220;2022-08-16T03:45:20;19.00;1.40
11059;DHT22;5582;59.272;15.220;2022-08-16T03:47:46;19.10;1.40
11059;DHT22;5582;59.272;15.220;2022-08-16T03:50:13;19.20;1.40
11059;DHT22;5582;59.272;15.220;2022-08-16T03:52:39;19.20;1.40
11059;DHT22;5582;59.272;15.220;2022-08-16T03:55:06;19.30;1.40
11059;DHT22;5582;59.272;15.220;2022-08-16T03:57:32;19.30;1.40
11059;DHT22;5582;59.272;15.220;2022-08-16T03:59:58;19.40;1.40
11059;DHT22;5582;59.272;15.220;2022-08-16T04:02:24;19.40;1.40
11059;DHT22;5582;59.272;15.220;2022-08-16T04:04:50;19.40;1.40
11059;DHT22;5582;59.272;15.220;2022-08-16T04:07:16;19.40;1.40
11059;DHT22;5582;59.272;15.220;2022-08-16T04:09:41;19.50;1.40
11059;DHT22;5582;59.272;15.220;2022-08-16T04:12:09;19.50;1.40
11059;DHT22;5582;59.272;15.220;2022-08-16T04:14:35;19.50;1.40
11059;DHT22;5582;59.272;15.220;2022-08-16T04:17:01;19.50;1.40
11059;DHT22;5582;59.272;15.220;2022-08-16T04:19:28;19.60;1.40
11059;DHT22;5582;59.272;15.220;2022-08-16T04:21:53;19.60;1.40
11059;DHT22;5582;59.272;15.220;2022-08-16T04:24:19;19.70;1.40
11059;DHT22;5582;59.272;15.220;2022-08-16T04:26:45;19.80;1.40
11059;DHT22;5582;59.272;15.220;2022-08-16T04:29:11;19.80;1.40
11059;DHT22;5582;59.272;15.220;2022-08-16T04:31:36;19.90;1.40
11059;DHT22;5582;59.272;15.220;2022-08-16T04:34:02;20.00;1.40
11059;DHT22;5582;59.272;15.220;2022-08-16T04:36:28;20.00;1.40
11059;DHT22;5582;59.272;15.220;2022-08-16T04:38:55;20.10;1.40
11059;DHT22;5582;59.272;15.220;2022-08-16T04:41:21;20.10;1.40
11059;DHT22;5582;59.272;15.220;2022-08-16T20:33:17;19.40;1.40
11059;DHT22;5582;59.272;15.220;2022-08-16T20:35:43;19.30;1.40
11059;DHT22;5582;59.272;15.220;2022-08-16T20:38:09;19.30;1.40
11059;DHT22;5582;59.272;15.220;2022-08-16T20:40:36;19.40;1.40
11059;DHT22;5582;59.272;15.220;2022-08-16T20:43:11;19.50;1.40
11059;DHT22;5582;59.272;15.220;2022-08-16T20:45:39;19.50;1.40
11059;DHT22;5582;59.272;15.220;2022-08-16T20:48:06;19.50;1.40
11059;DHT22;5582;59.272;15.220;2022-08-16T20:50:32;19.50;1.40
11059;DHT22;5582;59.272;15.220;2022-08-16T20:52:58;19.50;1.40
11059;DHT22;5582;59.272;15.220;2022-08-16T20:55:25;19.50;1.40
11059;DHT22;5582;59.272;15.220;2022-08-16T20:57:51;19.50;1.40
11059;DHT22;5582;59.272;15.220;2022-08-16T21:00:17;19.50;1.40
11059;DHT22;5582;59.272;15.220;2022-08-16T21:02:43;19.40;1.40
11059;DHT22;5582;59.272;15.220;2022-08-16T21:05:16;19.40;1.40
11059;DHT22;5582;59.272;15.220;2022-08-16T21:07:43;19.40;1.40
11059;DHT22;5582;59.272;15.220;2022-08-16T21:10:09;19.30;1.40
11059;DHT22;5582;59.272;15.220;2022-08-16T21:12:34;19.30;1.40
11059;DHT22;5582;59.272;15.220;2022-08-16T21:15:05;19.30;1.40
11059;DHT22;5582;59.272;15.220;2022-08-16T21:17:31;19.20;1.40
11059;DHT22;5582;59.272;15.220;2022-08-16T21:19:57;19.10;1.40
11059;DHT22;5582;59.272;15.220;2022-08-16T21:22:23;19.10;1.40
11059;DHT22;5582;59.272;15.220;2022-08-16T21:24:49;19.10;1.40
11059;DHT22;5582;59.272;15.220;2022-08-16T21:27:15;19.10;1.40
11059;DHT22;5582;59.272;15.220;2022-08-16T21:29:41;19.00;1.40
11059;DHT22;5582;59.272;15.220;2022-08-16T21:32:14;19.00;1.40
11059;DHT22;5582;59.272;15.220;2022-08-16T21:34:42;19.00;1.40
11059;DHT22;5582;59.272;15.220;2022-08-16T21:37:07;19.00;1.40
11059;DHT22;5582;59.272;15.220;2022-08-16T21:39:33;19.00;1.40
11059;DHT22;5582;59.272;15.220;2022-08-16T21:41:59;19.00;1.40
11059;DHT22;5582;59.272;15.220;2022-08-16T21:44:25;19.00;1.40
11059;DHT22;5582;59.272;15.220;2022-08-16T21:46:51;18.90;1.40
11059;DHT22;5582;59.272;15.220;2022-08-16T21:49:16;19.00;1.40
11059;DHT22;5582;59.272;15.220;2022-08-16T21:51:42;18.90;1.40
11059;DHT22;5582;59.272;15.220;2022-08-16T21:54:08;18.90;1.40
11059;DHT22;5582;59.272;15.220;2022-08-16T21:56:34;18.90;1.40
11059;DHT22;5582;59.272;15.220;2022-08-16T21:59:00;19.00;1.40
11059;DHT22;5582;59.272;15.220;2022-08-16T22:01:25;19.00;1.40
11059;DHT22;5582;59.272;15.220;2022-08-16T22:03:52;19.00;1.40
11059;DHT22;5582;59.272;15.220;2022-08-16T22:06:17;19.00;1.40
11059;DHT22;5582;59.272;15.220;2022-08-16T22:08:46;19.00;1.40
11059;DHT22;5582;59.272;15.220;2022-08-16T22:11:13;19.00;1.40
11059;DHT22;5582;59.272;15.220;2022-08-16T22:13:39;19.00;1.40
11059;DHT22;5582;59.272;15.220;2022-08-16T22:16:05;18.90;1.40
11059;DHT22;5582;59.272;15.220;2022-08-16T22:18:30;18.90;1.40
11059;DHT22;5582;59.272;15.220;2022-08-16T22:20:56;18.90;1.40
11059;DHT22;5582;59.272;15.220;2022-08-16T22:23:24;18.90;1.40
11059;DHT22;5582;59.272;15.220;2022-08-16T22:25:52;18.90;1.40
11059;DHT22;5582;59.272;15.220;2022-08-16T22:28:20;18.90;1.40
11059;DHT22;5582;59.272;15.220;2022-08-16T22:30:46;18.90;1.40
11059;DHT22;5582;59.272;15.220;2022-08-16T22:33:15;18.90;1.40
11059;DHT22;5582;59.272;15.220;2022-08-16T22:36:01;18.90;1.40
11059;DHT22;5582;59.272;15.220;2022-08-16T22:38:28;18.90;1.40
11059;DHT22;5582;59.272;15.220;2022-08-16T22:40:54;18.90;1.40
11059;DHT22;5582;59.272;15.220;2022-08-16T22:43:20;18.90;1.40
11059;DHT22;5582;59.272;15.220;2022-08-16T22:45:46;18.90;1.40
11059;DHT22;5582;59.272;15.220;2022-08-16T22:48:13;18.90;1.40
11059;DHT22;5582;59.272;15.220;2022-08-16T22:50:40;18.90;1.40
11059;DHT22;5582;59.272;15.220;2022-08-16T22:53:06;18.90;1.40
11059;DHT22;5582;59.272;15.220;2022-08-16T22:55:34;19.00;1.40
11059;DHT22;5582;59.272;15.220;2022-08-16T22:58:01;19.00;1.40
11059;DHT22;5582;59.272;15.220;2022-08-16T23:00:29;19.00;1.40
11059;DHT22;5582;59.272;15.220;2022-08-16T23:08:00;19.10;1.40
11059;DHT22;5582;59.272;15.220;2022-08-16T23:10:26;19.10;1.40
11059;DHT22;5582;59.272;15.220;2022-08-16T23:12:56;19.10;1.40
11059;DHT22;5582;59.272;15.220;2022-08-16T23:15:24;19.10;1.40
11059;DHT22;5582;59.272;15.220;2022-08-16T23:17:55;19.20;1.40
11059;DHT22;5582;59.272;15.220;2022-08-16T23:20:26;19.20;1.40
11059;DHT22;5582;59.272;15.220;2022-08-16T23:22:55;19.20;1.40
11059;DHT22;5582;59.272;15.220;2022-08-16T23:25:30;19.10;1.40
11059;DHT22;5582;59.272;15.220;2022-08-16T23:27:56;19.10;1.40
11059;DHT22;5582;59.272;15.220;2022-08-16T23:30:24;19.10;1.40
11059;DHT22;5582;59.272;15.220;2022-08-16T23:32:53;19.00;1.40
11059;DHT22;5582;59.272;15.220;2022-08-16T23:35:26;19.00;1.40
11059;DHT22;5582;59.272;15.220;2022-08-16T23:37:52;18.90;1.40
11059;DHT22;5582;59.272;15.220;2022-08-16T23:40:19;18.90;1.40
11059;DHT22;5582;59.272;15.220;2022-08-16T23:43:07;18.90;1.40
11059;DHT22;5582;59.272;15.220;2022-08-16T23:48:04;18.80;1.40
11059;DHT22;5582;59.272;15.220;2022-08-16T23:50:31;18.90;1.40
11059;DHT22;5582;59.272;15.220;2022-08-16T23:53:10;18.80;1.40
11059;DHT22;5582;59.272;15.220;2022-08-16T23:55:52;18.80;1.40
11059;DHT22;5582;59.272;15.220;2022-08-16T23:58:20;18.80;1.40
